sensor_id;sensor_type;location;lat;lon;timestamp;pressure;altitude;pressure_sealevel;temperature;humidity
40940;BME280;26666;50.156;7.700;2022-11-02T00:04:40;100852.50;;;9.67;100.00
40940;BME280;26666;50.156;7.700;2022-11-02T00:09:41;100847.03;;;9.82;100.00
40940;BME280;26666;50.156;7.700;2022-11-02T00:14:43;100840.34;;;9.89;100.00
40940;BME280;26666;50.156;7.700;2022-11-02T00:19:44;100850.66;;;9.81;100.00
40940;BME280;26666;50.156;7.700;2022-11-02T00:24:46;100835.91;;;9.90;100.00
40940;BME280;26666;50.156;7.700;2022-11-02T00:29:47;100843.56;;;9.81;100.00
40940;BME280;26666;50.156;7.700;2022-11-02T00:34:49;100837.47;;;9.92;100.00
40940;BME280;26666;50.156;7.700;2022-11-02T00:39:50;100836.13;;;9.75;100.00
40940;BME280;26666;50.156;7.700;2022-11-02T00:44:51;100849.97;;;9.66;100.00
40940;BME280;26666;50.156;7.700;2022-11-02T00:49:53;100851.09;;;9.51;100.00
40940;BME280;26666;50.156;7.700;2022-11-02T00:54:54;100851.56;;;9.44;100.00
40940;BME280;26666;50.156;7.700;2022-11-02T00:59:56;100858.56;;;9.33;100.00
40940;BME280;26666;50.156;7.700;2022-11-02T01:04:57;100871.66;;;9.58;100.00
40940;BME280;26666;50.156;7.700;2022-11-02T01:09:59;100866.31;;;9.71;100.00
40940;BME280;26666;50.156;7.700;2022-11-02T01:15:00;100859.44;;;9.93;100.00
40940;BME280;26666;50.156;7.700;2022-11-02T01:20:03;100858.69;;;9.79;100.00
40940;BME280;26666;50.156;7.700;2022-11-02T01:25:05;100846.56;;;9.88;100.00
40940;BME280;26666;50.156;7.700;2022-11-02T01:30:07;100837.88;;;9.99;100.00
40940;BME280;26666;50.156;7.700;2022-11-02T01:35:08;100829.13;;;9.98;100.00
40940;BME280;26666;50.156;7.700;2022-11-02T01:40:10;100828.53;;;10.06;100.00
40940;BME280;26666;50.156;7.700;2022-11-02T01:45:12;100824.09;;;10.06;100.00
40940;BME280;26666;50.156;7.700;2022-11-02T01:50:19;100817.41;;;10.14;100.00
40940;BME280;26666;50.156;7.700;2022-11-02T01:55:24;100824.66;;;10.34;100.00
40940;BME280;26666;50.156;7.700;2022-11-02T02:00:28;100803.88;;;10.41;100.00
40940;BME280;26666;50.156;7.700;2022-11-02T02:05:30;100804.72;;;10.64;100.00
40940;BME280;26666;50.156;7.700;2022-11-02T02:10:34;100813.63;;;10.63;100.00
40940;BME280;26666;50.156;7.700;2022-11-02T02:21:18;100812.97;;;11.04;100.00
40940;BME280;26666;50.156;7.700;2022-11-02T02:26:46;100810.34;;;10.93;100.00
40940;BME280;26666;50.156;7.700;2022-11-02T02:32:02;100813.34;;;11.11;100.00
40940;BME280;26666;50.156;7.700;2022-11-02T02:37:10;100806.94;;;11.14;100.00
40940;BME280;26666;50.156;7.700;2022-11-02T02:42:21;100799.09;;;11.23;100.00
40940;BME280;26666;50.156;7.700;2022-11-02T02:47:27;100806.72;;;11.17;100.00
40940;BME280;26666;50.156;7.700;2022-11-02T02:52:31;100815.72;;;11.03;100.00
40940;BME280;26666;50.156;7.700;2022-11-02T02:57:36;100806.72;;;11.05;100.00
40940;BME280;26666;50.156;7.700;2022-11-02T03:02:37;100817.75;;;11.22;100.00
40940;BME280;26666;50.156;7.700;2022-11-02T03:07:46;100821.69;;;11.28;100.00
40940;BME280;26666;50.156;7.700;2022-11-02T03:18:16;100821.56;;;11.40;100.00
40940;BME280;26666;50.156;7.700;2022-11-02T03:23:28;100823.84;;;11.22;100.00
40940;BME280;26666;50.156;7.700;2022-11-02T03:34:01;100821.38;;;11.10;100.00
40940;BME280;26666;50.156;7.700;2022-11-02T03:39:09;100823.31;;;11.08;100.00
40940;BME280;26666;50.156;7.700;2022-11-02T03:44:18;100842.78;;;11.07;100.00
40940;BME280;26666;50.156;7.700;2022-11-02T03:49:21;100837.00;;;11.13;100.00
40940;BME280;26666;50.156;7.700;2022-11-02T03:54:48;100850.19;;;11.24;100.00
40940;BME280;26666;50.156;7.700;2022-11-02T03:59:52;100837.25;;;10.98;100.00
40940;BME280;26666;50.156;7.700;2022-11-02T04:04:53;100859.44;;;11.30;100.00
40940;BME280;26666;50.156;7.700;2022-11-02T04:09:55;100851.69;;;11.17;100.00
40940;BME280;26666;50.156;7.700;2022-11-02T04:14:56;100864.63;;;11.20;100.00
40940;BME280;26666;50.156;7.700;2022-11-02T04:19:57;100859.81;;;11.36;100.00
40940;BME280;26666;50.156;7.700;2022-11-02T04:24:59;100867.78;;;11.14;100.00
40940;BME280;26666;50.156;7.700;2022-11-02T04:30:00;100874.88;;;11.13;100.00
40940;BME280;26666;50.156;7.700;2022-11-02T04:35:03;100872.94;;;11.15;100.00
40940;BME280;26666;50.156;7.700;2022-11-02T04:40:05;100890.13;;;11.21;100.00
40940;BME280;26666;50.156;7.700;2022-11-02T04:45:07;100884.25;;;11.29;100.00
40940;BME280;26666;50.156;7.700;2022-11-02T04:50:09;100885.69;;;11.21;100.00
40940;BME280;26666;50.156;7.700;2022-11-02T04:55:11;100882.56;;;11.05;100.00
40940;BME280;26666;50.156;7.700;2022-11-02T05:00:13;100887.72;;;11.07;100.00
40940;BME280;26666;50.156;7.700;2022-11-02T05:05:16;100900.22;;;11.04;100.00
40940;BME280;26666;50.156;7.700;2022-11-02T05:10:17;100912.03;;;11.12;100.00
40940;BME280;26666;50.156;7.700;2022-11-02T05:15:19;100913.09;;;10.98;100.00
40940;BME280;26666;50.156;7.700;2022-11-02T05:20:21;100912.25;;;10.97;100.00
40940;BME280;26666;50.156;7.700;2022-11-02T05:25:22;100918.13;;;11.01;100.00
40940;BME280;26666;50.156;7.700;2022-11-02T05:30:24;100926.81;;;10.92;100.00
40940;BME280;26666;50.156;7.700;2022-11-02T05:35:25;100934.88;;;11.01;100.00
40940;BME280;26666;50.156;7.700;2022-11-02T05:40:27;100935.44;;;11.05;100.00
40940;BME280;26666;50.156;7.700;2022-11-02T05:45:29;100938.94;;;10.94;100.00
40940;BME280;26666;50.156;7.700;2022-11-02T05:50:30;100944.09;;;10.84;100.00
40940;BME280;26666;50.156;7.700;2022-11-02T05:55:32;100953.94;;;11.05;100.00
40940;BME280;26666;50.156;7.700;2022-11-02T06:00:33;100957.06;;;10.88;100.00
40940;BME280;26666;50.156;7.700;2022-11-02T06:10:56;100974.38;;;11.03;100.00
40940;BME280;26666;50.156;7.700;2022-11-02T06:15:59;100971.97;;;10.89;100.00
40940;BME280;26666;50.156;7.700;2022-11-02T06:21:01;100975.72;;;10.86;100.00
40940;BME280;26666;50.156;7.700;2022-11-02T06:26:04;100989.53;;;10.90;100.00
40940;BME280;26666;50.156;7.700;2022-11-02T06:31:05;100988.34;;;10.94;100.00
40940;BME280;26666;50.156;7.700;2022-11-02T06:36:07;100998.34;;;11.01;100.00
40940;BME280;26666;50.156;7.700;2022-11-02T06:41:09;101007.09;;;11.02;100.00
40940;BME280;26666;50.156;7.700;2022-11-02T06:46:10;101003.94;;;10.85;100.00
40940;BME280;26666;50.156;7.700;2022-11-02T06:51:12;101012.13;;;10.94;100.00
40940;BME280;26666;50.156;7.700;2022-11-02T06:56:13;101017.91;;;10.99;100.00
40940;BME280;26666;50.156;7.700;2022-11-02T07:01:15;101028.75;;;11.07;100.00
40940;BME280;26666;50.156;7.700;2022-11-02T07:06:17;101033.44;;;11.26;100.00
40940;BME280;26666;50.156;7.700;2022-11-02T07:11:18;101045.84;;;11.37;100.00
40940;BME280;26666;50.156;7.700;2022-11-02T07:16:20;101054.38;;;11.52;100.00
40940;BME280;26666;50.156;7.700;2022-11-02T07:21:21;101067.25;;;11.34;100.00
40940;BME280;26666;50.156;7.700;2022-11-02T07:26:23;101070.88;;;11.33;100.00
40940;BME280;26666;50.156;7.700;2022-11-02T07:31:24;101080.00;;;11.51;100.00
40940;BME280;26666;50.156;7.700;2022-11-02T07:36:26;101092.75;;;11.69;100.00
40940;BME280;26666;50.156;7.700;2022-11-02T07:41:27;101091.22;;;11.66;100.00
40940;BME280;26666;50.156;7.700;2022-11-02T07:46:29;101098.28;;;11.88;100.00
40940;BME280;26666;50.156;7.700;2022-11-02T07:51:30;101109.03;;;11.98;100.00
40940;BME280;26666;50.156;7.700;2022-11-02T07:56:31;101120.31;;;11.66;100.00
40940;BME280;26666;50.156;7.700;2022-11-02T08:01:33;101120.34;;;12.00;100.00
40940;BME280;26666;50.156;7.700;2022-11-02T08:06:34;101123.22;;;12.19;100.00
40940;BME280;26666;50.156;7.700;2022-11-02T08:11:36;101127.66;;;12.41;100.00
40940;BME280;26666;50.156;7.700;2022-11-02T08:16:37;101128.28;;;12.66;100.00
40940;BME280;26666;50.156;7.700;2022-11-02T08:21:39;101128.06;;;12.90;100.00
40940;BME280;26666;50.156;7.700;2022-11-02T08:26:40;101118.03;;;13.15;100.00
40940;BME280;26666;50.156;7.700;2022-11-02T08:31:46;101113.66;;;13.25;97.19
40940;BME280;26666;50.156;7.700;2022-11-02T08:36:48;101129.59;;;13.46;97.26
40940;BME280;26666;50.156;7.700;2022-11-02T08:41:49;101128.41;;;13.60;96.34
40940;BME280;26666;50.156;7.700;2022-11-02T08:46:51;101124.94;;;13.69;94.50
40940;BME280;26666;50.156;7.700;2022-11-02T08:51:57;101131.22;;;13.89;93.50
40940;BME280;26666;50.156;7.700;2022-11-02T08:56:59;101144.50;;;13.89;90.87
40940;BME280;26666;50.156;7.700;2022-11-02T09:02:00;101148.03;;;13.99;89.31
40940;BME280;26666;50.156;7.700;2022-11-02T09:07:02;101158.94;;;14.06;88.29
40940;BME280;26666;50.156;7.700;2022-11-02T09:12:04;101149.63;;;14.22;88.99
40940;BME280;26666;50.156;7.700;2022-11-02T09:17:05;101161.53;;;14.27;88.42
40940;BME280;26666;50.156;7.700;2022-11-02T09:22:07;101158.56;;;14.11;88.90
40940;BME280;26666;50.156;7.700;2022-11-02T09:27:08;101166.22;;;14.04;86.71
40940;BME280;26666;50.156;7.700;2022-11-02T09:32:10;101161.59;;;14.06;86.22
40940;BME280;26666;50.156;7.700;2022-11-02T09:37:11;101186.50;;;14.05;88.25
40940;BME280;26666;50.156;7.700;2022-11-02T09:47:43;101191.41;;;14.10;89.24
40940;BME280;26666;50.156;7.700;2022-11-02T09:53:08;101201.78;;;14.13;86.36
40940;BME280;26666;50.156;7.700;2022-11-02T09:58:16;101207.53;;;14.18;85.74
40940;BME280;26666;50.156;7.700;2022-11-02T10:03:33;101211.72;;;14.11;86.36
40940;BME280;26666;50.156;7.700;2022-11-02T10:08:42;101214.66;;;14.17;85.53
40940;BME280;26666;50.156;7.700;2022-11-02T10:18:57;101211.03;;;14.18;87.10
40940;BME280;26666;50.156;7.700;2022-11-02T10:24:05;101203.78;;;14.20;86.56
40940;BME280;26666;50.156;7.700;2022-11-02T10:29:18;101189.56;;;14.41;84.44
40940;BME280;26666;50.156;7.700;2022-11-02T10:34:26;101202.84;;;14.41;85.91
40940;BME280;26666;50.156;7.700;2022-11-02T12:55:55;101145.06;;;14.43;71.49
40940;BME280;26666;50.156;7.700;2022-11-02T13:06:18;101130.63;;;14.26;73.82
40940;BME280;26666;50.156;7.700;2022-11-02T13:11:36;101127.13;;;14.35;76.44
40940;BME280;26666;50.156;7.700;2022-11-02T13:16:46;101118.75;;;14.30;69.94
40940;BME280;26666;50.156;7.700;2022-11-02T13:21:54;101107.22;;;14.20;72.84
40940;BME280;26666;50.156;7.700;2022-11-02T13:26:58;101114.50;;;14.18;78.91
40940;BME280;26666;50.156;7.700;2022-11-02T13:37:38;101110.56;;;14.12;79.96
40940;BME280;26666;50.156;7.700;2022-11-02T13:43:05;101118.97;;;14.17;83.33
40940;BME280;26666;50.156;7.700;2022-11-02T13:53:53;101115.81;;;13.93;81.38
40940;BME280;26666;50.156;7.700;2022-11-02T13:58:59;101119.66;;;14.10;85.95
40940;BME280;26666;50.156;7.700;2022-11-02T14:04:10;101113.91;;;14.05;86.03
40940;BME280;26666;50.156;7.700;2022-11-02T14:09:32;101120.88;;;13.96;85.97
40940;BME280;26666;50.156;7.700;2022-11-02T14:14:35;101113.84;;;13.85;86.56
40940;BME280;26666;50.156;7.700;2022-11-02T14:40:12;101102.34;;;13.44;89.12
40940;BME280;26666;50.156;7.700;2022-11-02T14:45:23;101103.97;;;13.35;86.28
40940;BME280;26666;50.156;7.700;2022-11-02T14:50:27;101092.38;;;13.36;85.78
40940;BME280;26666;50.156;7.700;2022-11-02T14:55:36;101092.44;;;13.25;87.98
40940;BME280;26666;50.156;7.700;2022-11-02T15:16:43;101103.03;;;13.04;91.30
40940;BME280;26666;50.156;7.700;2022-11-02T15:21:44;101095.34;;;13.01;90.51
40940;BME280;26666;50.156;7.700;2022-11-02T15:26:57;101088.66;;;12.86;90.99
40940;BME280;26666;50.156;7.700;2022-11-02T15:32:00;101088.69;;;12.74;88.72
40940;BME280;26666;50.156;7.700;2022-11-02T15:37:02;101093.69;;;12.68;90.74
40940;BME280;26666;50.156;7.700;2022-11-02T15:42:40;101082.28;;;12.56;91.67
40940;BME280;26666;50.156;7.700;2022-11-02T15:52:44;101070.69;;;12.36;91.19
40940;BME280;26666;50.156;7.700;2022-11-02T16:03:31;101072.56;;;12.01;92.33
40940;BME280;26666;50.156;7.700;2022-11-02T16:08:34;101067.75;;;11.95;92.81
40940;BME280;26666;50.156;7.700;2022-11-02T16:13:36;101055.47;;;11.83;92.71
40940;BME280;26666;50.156;7.700;2022-11-02T16:18:57;101056.41;;;11.71;90.69
40940;BME280;26666;50.156;7.700;2022-11-02T16:23:59;101060.53;;;11.52;91.60
40940;BME280;26666;50.156;7.700;2022-11-02T16:29:07;101061.03;;;11.46;91.71
40940;BME280;26666;50.156;7.700;2022-11-02T16:34:19;101055.59;;;11.36;92.55
40940;BME280;26666;50.156;7.700;2022-11-02T16:39:29;101054.84;;;11.34;93.05
40940;BME280;26666;50.156;7.700;2022-11-02T16:44:32;101062.66;;;11.13;93.72
40940;BME280;26666;50.156;7.700;2022-11-02T16:54:55;101051.22;;;11.01;94.36
40940;BME280;26666;50.156;7.700;2022-11-02T17:05:05;101059.69;;;10.82;93.27
40940;BME280;26666;50.156;7.700;2022-11-02T17:10:08;101071.72;;;10.87;93.86
40940;BME280;26666;50.156;7.700;2022-11-02T17:15:23;101074.28;;;10.64;93.78
40940;BME280;26666;50.156;7.700;2022-11-02T17:20:25;101074.84;;;10.56;93.55
40940;BME280;26666;50.156;7.700;2022-11-02T17:25:32;101075.19;;;10.52;93.69
40940;BME280;26666;50.156;7.700;2022-11-02T17:35:35;101082.22;;;10.40;96.06
40940;BME280;26666;50.156;7.700;2022-11-02T17:40:37;101071.91;;;10.24;95.25
40940;BME280;26666;50.156;7.700;2022-11-02T17:45:38;101071.38;;;10.32;96.07
40940;BME280;26666;50.156;7.700;2022-11-02T17:50:40;101073.91;;;9.96;96.68
40940;BME280;26666;50.156;7.700;2022-11-02T17:55:41;101067.03;;;9.94;95.78
40940;BME280;26666;50.156;7.700;2022-11-02T18:00:43;101064.63;;;9.78;97.15
40940;BME280;26666;50.156;7.700;2022-11-02T18:05:45;101062.84;;;9.78;96.75
40940;BME280;26666;50.156;7.700;2022-11-02T18:10:51;101070.06;;;9.63;96.89
40940;BME280;26666;50.156;7.700;2022-11-02T18:15:53;101072.06;;;9.60;97.32
40940;BME280;26666;50.156;7.700;2022-11-02T18:20:55;101067.22;;;9.54;97.64
40940;BME280;26666;50.156;7.700;2022-11-02T18:25:56;101061.72;;;9.57;97.11
40940;BME280;26666;50.156;7.700;2022-11-02T18:30:59;101058.16;;;9.32;98.65
40940;BME280;26666;50.156;7.700;2022-11-02T18:36:05;101050.97;;;9.47;98.32
40940;BME280;26666;50.156;7.700;2022-11-02T18:41:09;101053.94;;;9.17;99.01
40940;BME280;26666;50.156;7.700;2022-11-02T18:46:10;101047.59;;;9.19;100.00
40940;BME280;26666;50.156;7.700;2022-11-02T18:51:12;101044.63;;;9.24;99.24
40940;BME280;26666;50.156;7.700;2022-11-02T18:56:13;101042.31;;;9.19;100.00
40940;BME280;26666;50.156;7.700;2022-11-02T19:01:15;101033.66;;;8.92;100.00
40940;BME280;26666;50.156;7.700;2022-11-02T19:06:18;101047.97;;;8.75;100.00
40940;BME280;26666;50.156;7.700;2022-11-02T19:11:20;101016.97;;;8.65;100.00
40940;BME280;26666;50.156;7.700;2022-11-02T19:16:21;101017.84;;;8.92;100.00
40940;BME280;26666;50.156;7.700;2022-11-02T19:21:23;101006.47;;;8.78;100.00
40940;BME280;26666;50.156;7.700;2022-11-02T19:26:24;101006.00;;;8.72;100.00
40940;BME280;26666;50.156;7.700;2022-11-02T19:31:26;101002.41;;;8.60;100.00
40940;BME280;26666;50.156;7.700;2022-11-02T19:36:27;101003.50;;;8.70;100.00
40940;BME280;26666;50.156;7.700;2022-11-02T19:41:30;100997.88;;;8.49;100.00
40940;BME280;26666;50.156;7.700;2022-11-02T19:46:32;100998.00;;;8.33;100.00
40940;BME280;26666;50.156;7.700;2022-11-02T19:51:34;100992.94;;;8.57;100.00
40940;BME280;26666;50.156;7.700;2022-11-02T19:56:36;100991.69;;;8.36;100.00
40940;BME280;26666;50.156;7.700;2022-11-02T20:01:39;100988.13;;;8.37;100.00
40940;BME280;26666;50.156;7.700;2022-11-02T20:06:42;100991.63;;;8.10;100.00
40940;BME280;26666;50.156;7.700;2022-11-02T20:11:44;100988.31;;;8.34;100.00
40940;BME280;26666;50.156;7.700;2022-11-02T20:16:46;100990.91;;;8.21;100.00
40940;BME280;26666;50.156;7.700;2022-11-02T20:22:04;100989.22;;;8.20;100.00
40940;BME280;26666;50.156;7.700;2022-11-02T20:27:06;100994.41;;;7.94;100.00
40940;BME280;26666;50.156;7.700;2022-11-02T20:32:07;100995.38;;;8.33;100.00
40940;BME280;26666;50.156;7.700;2022-11-02T20:37:09;100994.03;;;7.86;100.00
40940;BME280;26666;50.156;7.700;2022-11-02T20:42:10;100982.66;;;7.85;100.00
40940;BME280;26666;50.156;7.700;2022-11-02T20:47:12;100967.78;;;7.99;100.00
40940;BME280;26666;50.156;7.700;2022-11-02T20:52:13;100967.09;;;7.82;100.00
40940;BME280;26666;50.156;7.700;2022-11-02T20:57:14;100962.94;;;7.78;100.00
40940;BME280;26666;50.156;7.700;2022-11-02T21:02:16;100956.19;;;7.74;100.00
40940;BME280;26666;50.156;7.700;2022-11-02T21:07:17;100959.38;;;7.79;100.00
40940;BME280;26666;50.156;7.700;2022-11-02T21:12:19;100960.69;;;7.86;100.00
40940;BME280;26666;50.156;7.700;2022-11-02T21:17:20;100966.53;;;7.77;100.00
40940;BME280;26666;50.156;7.700;2022-11-02T21:22:22;100953.22;;;7.66;100.00
40940;BME280;26666;50.156;7.700;2022-11-02T21:27:23;100952.72;;;7.74;100.00
40940;BME280;26666;50.156;7.700;2022-11-02T21:32:25;100959.34;;;7.52;100.00
40940;BME280;26666;50.156;7.700;2022-11-02T21:37:26;100947.94;;;7.66;100.00
40940;BME280;26666;50.156;7.700;2022-11-02T21:42:28;100937.88;;;7.45;100.00
40940;BME280;26666;50.156;7.700;2022-11-02T21:47:29;100942.69;;;7.66;100.00
40940;BME280;26666;50.156;7.700;2022-11-02T21:52:34;100942.03;;;7.62;100.00
40940;BME280;26666;50.156;7.700;2022-11-02T21:57:36;100934.94;;;7.50;100.00
40940;BME280;26666;50.156;7.700;2022-11-02T22:02:38;100933.16;;;7.50;100.00
40940;BME280;26666;50.156;7.700;2022-11-02T22:07:39;100924.63;;;7.33;100.00
40940;BME280;26666;50.156;7.700;2022-11-02T22:12:41;100908.50;;;7.66;100.00
40940;BME280;26666;50.156;7.700;2022-11-02T22:17:42;100907.72;;;7.37;100.00
40940;BME280;26666;50.156;7.700;2022-11-02T22:22:50;100903.03;;;7.27;100.00
40940;BME280;26666;50.156;7.700;2022-11-02T22:27:51;100909.16;;;7.14;100.00
40940;BME280;26666;50.156;7.700;2022-11-02T22:32:53;100898.78;;;6.98;100.00
40940;BME280;26666;50.156;7.700;2022-11-02T22:37:54;100895.16;;;7.27;100.00
40940;BME280;26666;50.156;7.700;2022-11-02T22:42:56;100878.41;;;7.43;100.00
40940;BME280;26666;50.156;7.700;2022-11-02T22:47:57;100889.63;;;7.32;100.00
40940;BME280;26666;50.156;7.700;2022-11-02T22:52:58;100888.63;;;7.06;100.00
40940;BME280;26666;50.156;7.700;2022-11-02T22:58:00;100866.69;;;7.07;100.00
40940;BME280;26666;50.156;7.700;2022-11-02T23:03:01;100863.88;;;7.37;100.00
40940;BME280;26666;50.156;7.700;2022-11-02T23:08:03;100855.22;;;7.77;100.00
40940;BME280;26666;50.156;7.700;2022-11-02T23:13:05;100858.34;;;7.27;100.00
40940;BME280;26666;50.156;7.700;2022-11-02T23:18:07;100860.25;;;7.53;100.00
40940;BME280;26666;50.156;7.700;2022-11-02T23:23:08;100852.47;;;7.24;100.00
40940;BME280;26666;50.156;7.700;2022-11-02T23:28:10;100852.91;;;7.30;100.00
40940;BME280;26666;50.156;7.700;2022-11-02T23:33:13;100844.38;;;7.27;100.00
40940;BME280;26666;50.156;7.700;2022-11-02T23:38:14;100841.56;;;7.30;100.00
40940;BME280;26666;50.156;7.700;2022-11-02T23:43:16;100836.41;;;7.28;100.00
40940;BME280;26666;50.156;7.700;2022-11-02T23:48:17;100827.13;;;7.50;100.00
40940;BME280;26666;50.156;7.700;2022-11-02T23:53:22;100808.47;;;7.40;100.00
40940;BME280;26666;50.156;7.700;2022-11-02T23:58:23;100800.34;;;7.30;100.00
